Van Horn's Hourly Summary for Wednesday, October 21, 2020
Hour Temp
(f)
RH
(%)
Solar Rad.
(MJ/m2)
Rainfall
(in)
Wind
(mph)
Battery
(volts)
10/21/2020 12:00 AM 63 15 0 0 10.06 0
10/21/2020 1:00 AM 66 40 0 0 9.36 0
10/21/2020 2:00 AM 64 52 0 0 10.26 0
10/21/2020 3:00 AM 63 55 0 0 9.41 0
10/21/2020 4:00 AM 59 59 0 0 10.4 0
10/21/2020 5:00 AM 60 61 0 0 9.94 0
10/21/2020 6:00 AM 53 67 0 0 0.39 0
10/21/2020 7:00 AM 49 69 0 0 2.4 0
10/21/2020 8:00 AM 55 71 0.06 0 5.47 0
10/21/2020 9:00 AM 65 59 0.25 0 7.51 0
10/21/2020 10:00 AM 73 48 0.42 0 9.23 0
10/21/2020 11:00 AM 78 38 0.56 0 6.7 0
10/21/2020 12:00 PM 83 28 0.66 0 6.91 0
10/21/2020 1:00 PM 85 23 0.68 0 6.86 0
10/21/2020 2:00 PM 87 17 0.65 0 3.65 0
10/21/2020 3:00 PM 89 14 0.56 0 3.51 0
10/21/2020 4:00 PM 90 14 0.41 0 9.29 0
10/21/2020 5:00 PM 89 9 0.26 0 6.11 0
10/21/2020 6:00 PM 87 13 0.08 0 7.63 0
10/21/2020 7:00 PM 77 18 0 0 2.58 0
10/21/2020 8:00 PM 71 24 0 0 4.48 0
10/21/2020 9:00 PM 70 26 0 0 6.41 0
10/21/2020 10:00 PM 74 33 0 0 8.97 0
10/21/2020 11:00 PM 73 42 0 0 9.71 0
Data Summary 71 37 4.59 0.00 6.97 0.00